createdAt,value
2018-08-07T00:00:08.391Z,1006.56
2018-08-07T00:01:08.390Z,1006.56
2018-08-07T00:02:08.380Z,1006.56
2018-08-07T00:03:08.355Z,1006.56
2018-08-07T00:04:08.350Z,1006.58
2018-08-07T00:05:08.336Z,1006.57
2018-08-07T00:06:08.326Z,1006.58
2018-08-07T00:07:08.395Z,1006.55
2018-08-07T00:08:08.309Z,1006.53
2018-08-07T00:09:08.292Z,1006.50
2018-08-07T00:10:08.276Z,1006.48
2018-08-07T00:11:08.264Z,1006.50
2018-08-07T00:12:08.269Z,1006.53
2018-08-07T00:13:08.243Z,1006.55
2018-08-07T00:14:08.232Z,1006.51
2018-08-07T00:15:08.226Z,1006.53
2018-08-07T00:16:08.216Z,1006.50
2018-08-07T00:17:08.198Z,1006.49
2018-08-07T00:18:08.186Z,1006.48
2018-08-07T00:19:08.179Z,1006.50
2018-08-07T00:20:08.164Z,1006.49
2018-08-07T00:21:08.154Z,1006.50
2018-08-07T00:22:08.143Z,1006.46
2018-08-07T00:23:08.131Z,1006.42
2018-08-07T00:24:08.120Z,1006.40
2018-08-07T00:25:08.108Z,1006.41
2018-08-07T00:26:08.095Z,1006.37
2018-08-07T00:27:08.088Z,1006.38
2018-08-07T00:28:08.082Z,1006.38
2018-08-07T00:29:08.061Z,1006.36
2018-08-07T00:30:08.062Z,1006.34
2018-08-07T00:31:08.043Z,1006.35
2018-08-07T00:32:08.029Z,1006.35
2018-08-07T00:33:08.024Z,1006.35
2018-08-07T00:34:08.007Z,1006.34
2018-08-07T00:35:07.994Z,1006.30
2018-08-07T00:36:07.983Z,1006.32
2018-08-07T00:37:07.972Z,1006.33
2018-08-07T00:38:07.957Z,1006.35
2018-08-07T00:39:07.947Z,1006.31
2018-08-07T00:40:07.942Z,1006.33
2018-08-07T00:41:07.939Z,1006.34
2018-08-07T00:42:07.918Z,1006.29
2018-08-07T00:43:07.906Z,1006.33
2018-08-07T00:44:07.889Z,1006.33
2018-08-07T00:45:07.878Z,1006.30
2018-08-07T00:46:07.867Z,1006.30
2018-08-07T00:47:07.857Z,1006.28
2018-08-07T00:48:07.844Z,1006.29
2018-08-07T00:49:07.836Z,1006.31
2018-08-07T00:50:07.873Z,1006.24
2018-08-07T00:51:07.810Z,1006.26
2018-08-07T00:52:07.955Z,1006.26
2018-08-07T00:53:07.785Z,1006.24
2018-08-07T00:54:07.775Z,1006.21
2018-08-07T00:55:07.762Z,1006.18
2018-08-07T00:56:07.749Z,1006.21
2018-08-07T00:57:07.739Z,1006.21
2018-08-07T00:58:07.729Z,1006.16
2018-08-07T00:59:07.718Z,1006.16
2018-08-07T01:00:07.714Z,1006.11
2018-08-07T01:01:07.693Z,1006.08
2018-08-07T01:02:07.683Z,1006.14
2018-08-07T01:03:07.671Z,1006.10
2018-08-07T01:04:07.658Z,1006.14
2018-08-07T01:05:07.649Z,1006.12
2018-08-07T01:06:07.636Z,1006.14
2018-08-07T01:07:07.623Z,1006.10
2018-08-07T01:08:07.611Z,1006.13
2018-08-07T01:09:07.603Z,1006.14
2018-08-07T01:10:07.596Z,1006.12
2018-08-07T01:11:07.578Z,1006.08
2018-08-07T01:12:07.565Z,1006.06
2018-08-07T01:13:07.556Z,1006.06
2018-08-07T01:14:07.546Z,1006.07
2018-08-07T01:15:07.529Z,1006.05
2018-08-07T01:16:07.522Z,1006.06
2018-08-07T01:17:07.509Z,1006.03
2018-08-07T01:18:07.496Z,1006.02
2018-08-07T01:19:07.495Z,1006.02
2018-08-07T01:20:07.474Z,1005.98
2018-08-07T01:21:07.458Z,1005.98
2018-08-07T01:22:07.454Z,1005.94
2018-08-07T01:23:07.443Z,1005.92
2018-08-07T01:24:07.499Z,1005.93
2018-08-07T01:25:07.414Z,1005.93
2018-08-07T01:26:07.401Z,1005.95
2018-08-07T01:27:07.474Z,1005.95
2018-08-07T01:28:07.380Z,1005.98
2018-08-07T01:29:07.366Z,1005.95
2018-08-07T01:30:07.354Z,1005.93
2018-08-07T01:31:07.343Z,1005.93
2018-08-07T01:32:07.334Z,1005.94
2018-08-07T01:33:07.326Z,1005.95
2018-08-07T01:34:07.312Z,1005.92
2018-08-07T01:35:07.296Z,1005.93
2018-08-07T01:36:07.286Z,1005.90
2018-08-07T01:37:07.270Z,1005.91
2018-08-07T01:38:07.264Z,1005.91
2018-08-07T01:39:07.248Z,1005.85
2018-08-07T01:40:07.237Z,1005.87
2018-08-07T01:41:07.229Z,1005.84
2018-08-07T01:42:07.221Z,1005.86
2018-08-07T01:43:07.205Z,1005.84
2018-08-07T01:44:07.193Z,1005.88
2018-08-07T01:45:07.177Z,1005.84
2018-08-07T01:46:07.173Z,1005.88
2018-08-07T01:47:07.151Z,1005.88
2018-08-07T01:48:07.142Z,1005.85
2018-08-07T01:49:07.132Z,1005.86
2018-08-07T01:50:07.117Z,1005.82
2018-08-07T01:51:07.206Z,1005.83
2018-08-07T01:52:07.106Z,1005.82
2018-08-07T01:53:07.081Z,1005.84
2018-08-07T01:54:07.069Z,1005.83
2018-08-07T01:55:07.058Z,1005.83
2018-08-07T01:56:07.050Z,1005.82
2018-08-07T01:57:07.034Z,1005.85
2018-08-07T01:58:07.023Z,1005.85
2018-08-07T01:59:07.010Z,1005.85
2018-08-07T02:00:06.999Z,1005.88
2018-08-07T02:01:06.985Z,1005.86
2018-08-07T02:02:06.975Z,1005.83
2018-08-07T02:03:06.962Z,1005.81
2018-08-07T02:04:06.949Z,1005.80
2018-08-07T02:05:06.939Z,1005.78
2018-08-07T02:06:06.931Z,1005.77
2018-08-07T02:07:06.912Z,1005.79
2018-08-07T02:08:06.900Z,1005.76
2018-08-07T02:09:06.890Z,1005.77
2018-08-07T02:10:06.880Z,1005.78
2018-08-07T02:11:06.864Z,1005.77
2018-08-07T02:12:06.854Z,1005.78
2018-08-07T02:13:06.839Z,1005.84
2018-08-07T02:14:06.830Z,1005.83
2018-08-07T02:15:06.824Z,1005.81
2018-08-07T02:16:06.807Z,1005.80
2018-08-07T02:17:06.798Z,1005.77
2018-08-07T02:18:06.785Z,1005.79
2018-08-07T02:19:06.769Z,1005.74
2018-08-07T02:20:06.757Z,1005.78
2018-08-07T02:21:06.743Z,1005.74
2018-08-07T02:22:06.730Z,1005.78
2018-08-07T02:23:06.725Z,1005.78
2018-08-07T02:24:06.715Z,1005.81
2018-08-07T02:25:06.697Z,1005.80
2018-08-07T02:26:06.681Z,1005.76
2018-08-07T02:27:06.670Z,1005.72
2018-08-07T02:28:06.657Z,1005.70
2018-08-07T02:29:06.648Z,1005.72
2018-08-07T02:30:06.635Z,1005.73
2018-08-07T02:31:06.673Z,1005.72
2018-08-07T02:32:06.610Z,1005.76
2018-08-07T02:33:06.604Z,1005.72
2018-08-07T02:34:06.584Z,1005.72
2018-08-07T02:35:06.576Z,1005.69
2018-08-07T02:36:06.562Z,1005.70
2018-08-07T02:37:06.548Z,1005.70
2018-08-07T02:38:06.535Z,1005.71
2018-08-07T02:39:06.521Z,1005.67
2018-08-07T02:40:06.513Z,1005.69
2018-08-07T02:41:06.500Z,1005.61
2018-08-07T02:42:06.487Z,1005.62
2018-08-07T02:43:06.472Z,1005.60
2018-08-07T02:44:06.472Z,1005.58
2018-08-07T02:45:06.450Z,1005.57
2018-08-07T02:46:06.441Z,1005.56
2018-08-07T02:47:06.525Z,1005.58
2018-08-07T02:48:06.430Z,1005.60
2018-08-07T02:49:06.401Z,1005.61
2018-08-07T02:50:06.391Z,1005.61
2018-08-07T02:51:06.376Z,1005.56
2018-08-07T02:52:06.362Z,1005.57
2018-08-07T02:53:06.354Z,1005.54
2018-08-07T02:54:06.337Z,1005.55
2018-08-07T02:55:06.326Z,1005.56
2018-08-07T02:56:06.313Z,1005.52
2018-08-07T02:57:06.301Z,1005.51
2018-08-07T02:58:06.290Z,1005.50
2018-08-07T02:59:06.277Z,1005.47
2018-08-07T03:00:06.268Z,1005.45
2018-08-07T03:01:06.261Z,1005.42
2018-08-07T03:02:06.241Z,1005.39
2018-08-07T03:03:06.229Z,1005.39
2018-08-07T03:04:06.217Z,1005.42
2018-08-07T03:05:06.203Z,1005.39
2018-08-07T03:06:06.274Z,1005.39
2018-08-07T03:07:06.181Z,1005.40
2018-08-07T03:08:06.168Z,1005.40
2018-08-07T03:09:06.156Z,1005.43
2018-08-07T03:10:06.143Z,1005.41
2018-08-07T03:11:06.141Z,1005.43
2018-08-07T03:12:06.117Z,1005.43
2018-08-07T03:13:06.108Z,1005.41
2018-08-07T03:14:06.100Z,1005.37
2018-08-07T03:15:06.081Z,1005.40
2018-08-07T03:16:06.069Z,1005.41
2018-08-07T03:17:06.058Z,1005.39
2018-08-07T03:18:06.044Z,1005.38
2018-08-07T03:19:06.041Z,1005.39
2018-08-07T03:20:06.022Z,1005.36
2018-08-07T03:21:06.009Z,1005.33
2018-08-07T03:22:06.003Z,1005.33
2018-08-07T03:23:05.980Z,1005.37
2018-08-07T03:24:05.970Z,1005.38
2018-08-07T03:25:05.960Z,1005.36
2018-08-07T03:26:05.944Z,1005.39
2018-08-07T03:27:05.932Z,1005.39
2018-08-07T03:28:05.919Z,1005.34
2018-08-07T03:29:05.909Z,1005.36
2018-08-07T03:30:05.894Z,1005.32
2018-08-07T03:31:05.880Z,1005.36
2018-08-07T03:32:05.868Z,1005.38
2018-08-07T03:33:05.857Z,1005.46
2018-08-07T03:34:05.847Z,1005.49
2018-08-07T03:35:05.834Z,1005.43
2018-08-07T03:36:05.828Z,1005.44
2018-08-07T03:37:05.807Z,1005.46
2018-08-07T03:38:05.795Z,1005.45
2018-08-07T03:39:05.781Z,1005.44
2018-08-07T03:40:05.769Z,1005.46
2018-08-07T03:41:05.758Z,1005.51
2018-08-07T03:42:05.747Z,1005.49
2018-08-07T03:43:05.733Z,1005.50
2018-08-07T03:44:05.732Z,1005.53
2018-08-07T03:45:05.707Z,1005.49
2018-08-07T03:46:05.696Z,1005.46
2018-08-07T03:47:05.682Z,1005.51
2018-08-07T03:48:05.672Z,1005.47
2018-08-07T03:49:05.658Z,1005.45
2018-08-07T03:50:05.645Z,1005.44
2018-08-07T03:51:05.634Z,1005.44
2018-08-07T03:52:05.618Z,1005.45
2018-08-07T03:53:05.613Z,1005.48
2018-08-07T03:54:05.598Z,1005.42
2018-08-07T03:55:05.581Z,1005.43
2018-08-07T03:56:05.572Z,1005.45
2018-08-07T03:57:05.567Z,1005.42
2018-08-07T03:58:05.543Z,1005.40
2018-08-07T03:59:05.554Z,1005.43
2018-08-07T04:00:05.523Z,1005.39
2018-08-07T04:01:05.511Z,1005.43
2018-08-07T04:02:05.493Z,1005.43
2018-08-07T04:03:05.481Z,1005.47
2018-08-07T04:04:05.471Z,1005.46
2018-08-07T04:05:05.455Z,1005.46
2018-08-07T04:06:05.441Z,1005.43
2018-08-07T04:07:05.431Z,1005.47
2018-08-07T04:08:05.424Z,1005.49
2018-08-07T04:09:05.407Z,1005.45
2018-08-07T04:10:05.496Z,1005.49
2018-08-07T04:11:05.380Z,1005.45
2018-08-07T04:12:05.365Z,1005.47
2018-08-07T04:13:05.352Z,1005.41
2018-08-07T04:14:05.341Z,1005.46
2018-08-07T04:15:05.328Z,1005.43
2018-08-07T04:16:05.317Z,1005.44
2018-08-07T04:17:05.304Z,1005.40
2018-08-07T04:18:05.290Z,1005.44
2018-08-07T04:19:05.277Z,1005.41
2018-08-07T04:20:05.264Z,1005.43
2018-08-07T04:21:05.259Z,1005.41
2018-08-07T04:22:05.238Z,1005.42
2018-08-07T04:23:05.240Z,1005.42
2018-08-07T04:24:05.214Z,1005.46
2018-08-07T04:25:05.205Z,1005.45
2018-08-07T04:26:05.312Z,1005.46
2018-08-07T04:27:05.176Z,1005.47
2018-08-07T04:28:05.163Z,1005.48
2018-08-07T04:29:05.150Z,1005.44
2018-08-07T04:30:05.138Z,1005.45
2018-08-07T04:31:05.126Z,1005.44
2018-08-07T04:32:05.112Z,1005.43
2018-08-07T04:33:05.100Z,1005.40
2018-08-07T04:34:05.096Z,1005.42
2018-08-07T04:35:05.096Z,1005.43
2018-08-07T04:36:05.070Z,1005.46
2018-08-07T04:37:05.066Z,1005.48
2018-08-07T04:38:05.037Z,1005.50
2018-08-07T04:39:05.025Z,1005.53
2018-08-07T04:40:05.012Z,1005.58
2018-08-07T04:41:04.999Z,1005.58
2018-08-07T04:42:05.134Z,1005.56
2018-08-07T04:43:04.974Z,1005.58
2018-08-07T04:44:04.961Z,1005.58
2018-08-07T04:45:04.999Z,1005.60
2018-08-07T04:46:04.935Z,1005.58
2018-08-07T04:47:04.922Z,1005.55
2018-08-07T04:48:04.919Z,1005.59
2018-08-07T04:49:04.901Z,1005.56
2018-08-07T04:50:04.885Z,1005.56
2018-08-07T04:51:04.872Z,1005.53
2018-08-07T04:52:04.863Z,1005.51
2018-08-07T04:53:04.850Z,1005.49
2018-08-07T04:54:04.839Z,1005.49
2018-08-07T04:55:04.832Z,1005.48
2018-08-07T04:56:04.815Z,1005.48
2018-08-07T04:57:04.807Z,1005.44
2018-08-07T04:58:04.819Z,1005.44
2018-08-07T04:59:04.784Z,1005.48
2018-08-07T05:00:04.759Z,1005.48
2018-08-07T05:01:04.750Z,1005.44
2018-08-07T05:02:04.740Z,1005.44
2018-08-07T05:03:04.720Z,1005.44
2018-08-07T05:04:04.709Z,1005.44
2018-08-07T05:05:04.698Z,1005.47
2018-08-07T05:06:04.752Z,1005.49
2018-08-07T05:07:04.674Z,1005.46
2018-08-07T05:08:04.659Z,1005.46
2018-08-07T05:09:04.648Z,1005.48
2018-08-07T05:10:04.633Z,1005.52
2018-08-07T05:11:04.645Z,1005.48
2018-08-07T05:12:04.613Z,1005.46
2018-08-07T05:13:04.598Z,1005.49
2018-08-07T05:14:04.585Z,1005.51
2018-08-07T05:15:04.572Z,1005.53
2018-08-07T05:16:04.561Z,1005.54
2018-08-07T05:17:04.553Z,1005.54
2018-08-07T05:18:04.534Z,1005.54
2018-08-07T05:19:04.522Z,1005.54
2018-08-07T05:20:04.520Z,1005.56
2018-08-07T05:21:04.541Z,1005.55
2018-08-07T05:22:04.484Z,1005.58
2018-08-07T05:23:04.472Z,1005.50
2018-08-07T05:24:04.460Z,1005.56
2018-08-07T05:25:04.501Z,1005.53
2018-08-07T05:26:04.436Z,1005.58
2018-08-07T05:27:04.422Z,1005.55
2018-08-07T05:28:04.411Z,1005.53
2018-08-07T05:29:04.400Z,1005.57
2018-08-07T05:30:04.386Z,1005.55
2018-08-07T05:31:04.380Z,1005.57
2018-08-07T05:32:04.362Z,1005.55
2018-08-07T05:33:04.349Z,1005.58
2018-08-07T05:34:04.338Z,1005.60
2018-08-07T05:35:04.325Z,1005.59
2018-08-07T05:36:04.314Z,1005.76
2018-08-07T05:37:04.302Z,1006.07
2018-08-07T05:38:04.300Z,1006.22
2018-08-07T05:39:04.279Z,1006.26
2018-08-07T05:40:04.273Z,1006.24
2018-08-07T05:41:04.403Z,1006.29
2018-08-07T05:42:04.239Z,1006.30
2018-08-07T05:43:04.228Z,1006.38
2018-08-07T05:44:04.316Z,1006.39
2018-08-07T05:45:04.205Z,1006.32
2018-08-07T05:46:04.206Z,1006.36
2018-08-07T05:47:04.184Z,1006.41
2018-08-07T05:48:04.174Z,1006.41
2018-08-07T05:49:04.163Z,1006.43
2018-08-07T05:50:04.234Z,1006.45
2018-08-07T05:51:04.511Z,1006.55
2018-08-07T05:52:04.152Z,1006.53
2018-08-07T05:53:04.149Z,1006.55
2018-08-07T05:54:04.115Z,1006.47
2018-08-07T05:55:04.134Z,1006.54
2018-08-07T05:56:04.098Z,1006.57
2018-08-07T05:57:04.089Z,1006.57
2018-08-07T05:58:04.235Z,1006.57
2018-08-07T05:59:04.075Z,1006.59
2018-08-07T06:00:04.069Z,1006.64
2018-08-07T06:01:04.063Z,1006.67
2018-08-07T06:02:04.050Z,1006.67
2018-08-07T06:03:04.046Z,1006.68
2018-08-07T06:04:04.039Z,1006.68
2018-08-07T06:05:04.238Z,1006.69
2018-08-07T06:06:48.006Z,1006.63
2018-08-07T06:09:17.111Z,1006.64
2018-08-07T06:10:17.108Z,1006.62
2018-08-07T06:11:17.111Z,1006.68
2018-08-07T06:12:17.099Z,1006.63
2018-08-07T06:13:17.097Z,1006.65
2018-08-07T06:14:17.088Z,1006.63
2018-08-07T06:15:17.084Z,1006.59
2018-08-07T06:16:17.077Z,1006.57
2018-08-07T06:17:17.123Z,1006.60
2018-08-07T06:18:17.069Z,1006.60
2018-08-07T06:19:17.089Z,1006.57
2018-08-07T06:20:17.060Z,1006.59
2018-08-07T06:21:17.072Z,1006.59
2018-08-07T06:22:20.686Z,1006.52
2018-08-07T06:23:17.048Z,1006.54
2018-08-07T06:24:17.044Z,1006.55
2018-08-07T06:25:17.044Z,1006.30
2018-08-07T06:26:17.043Z,1006.20
2018-08-07T06:27:17.035Z,1006.25
2018-08-07T06:28:17.040Z,1006.06
2018-08-07T06:29:17.029Z,1006.16
2018-08-07T06:30:17.036Z,1006.24
2018-08-07T06:31:17.069Z,1006.28
2018-08-07T06:32:17.031Z,1006.36
2018-08-07T06:33:17.014Z,1006.44
2018-08-07T06:34:17.019Z,1006.37
2018-08-07T06:35:17.009Z,1006.28
2018-08-07T06:36:17.006Z,1006.28
2018-08-07T06:37:17.018Z,1006.32
2018-08-07T06:38:17.006Z,1006.40
2018-08-07T06:39:16.995Z,1006.41
2018-08-07T06:40:16.992Z,1006.42
2018-08-07T06:41:16.991Z,1006.47
2018-08-07T06:42:19.606Z,1006.45
2018-08-07T06:43:17.016Z,1006.42
2018-08-07T06:44:16.984Z,1006.41
2018-08-07T06:45:16.976Z,1006.33
2018-08-07T06:46:16.975Z,1006.25
2018-08-07T06:47:16.968Z,1006.33
2018-08-07T06:48:16.967Z,1006.17
2018-08-07T06:49:16.965Z,1006.10
2018-08-07T06:50:17.000Z,1006.03
2018-08-07T06:51:16.967Z,1006.05
2018-08-07T06:52:16.958Z,1006.02
2018-08-07T06:53:16.961Z,1005.99
2018-08-07T06:54:16.954Z,1006.00
2018-08-07T06:55:20.180Z,1005.93
2018-08-07T06:56:16.943Z,1005.90
2018-08-07T06:57:16.942Z,1005.91
2018-08-07T06:58:16.938Z,1005.93
2018-08-07T06:59:16.942Z,1005.93
2018-08-07T07:00:16.935Z,1005.91
2018-08-07T07:01:16.927Z,1006.05
2018-08-07T07:02:16.923Z,1005.94
2018-08-07T07:03:16.916Z,1005.98
2018-08-07T07:04:16.913Z,1005.95
2018-08-07T07:05:16.910Z,1005.91
2018-08-07T07:06:16.906Z,1005.91
2018-08-07T07:07:16.900Z,1005.90
2018-08-07T07:08:16.908Z,1005.89
2018-08-07T07:09:16.911Z,1005.84
2018-08-07T07:10:16.883Z,1005.84
2018-08-07T07:11:16.879Z,1005.84
2018-08-07T07:12:16.877Z,1005.83
2018-08-07T07:13:19.690Z,1005.82
2018-08-07T07:14:16.870Z,1005.84
2018-08-07T07:15:17.785Z,1005.83
2018-08-07T07:16:16.862Z,1005.83
2018-08-07T07:17:20.339Z,1005.85
2018-08-07T07:19:55.618Z,1005.83
2018-08-07T07:20:55.676Z,1005.83
2018-08-07T07:21:55.621Z,1005.86
2018-08-07T07:22:55.598Z,1005.87
2018-08-07T07:23:55.596Z,1005.84
2018-08-07T07:24:55.584Z,1006.03
2018-08-07T07:26:55.570Z,1006.08
2018-08-07T07:27:55.567Z,1005.98
2018-08-07T07:28:55.567Z,1005.97
2018-08-07T07:29:55.564Z,1005.96
2018-08-07T07:30:55.552Z,1006.00
2018-08-07T07:31:55.679Z,1005.95
2018-08-07T07:32:55.541Z,1005.90
2018-08-07T07:33:55.529Z,1005.87
2018-08-07T07:34:55.524Z,1005.80
2018-08-07T07:35:55.515Z,1005.76
2018-08-07T07:36:55.508Z,1005.81
2018-08-07T07:37:55.511Z,1005.76
2018-08-07T07:38:55.497Z,1005.78
2018-08-07T07:39:55.493Z,1005.80
2018-08-07T07:40:55.487Z,1005.77
2018-08-07T07:42:28.694Z,1005.72
2018-08-07T07:42:55.476Z,1005.75
2018-08-07T07:43:55.471Z,1005.75
2018-08-07T07:44:55.465Z,1005.85
2018-08-07T07:45:55.458Z,1005.83
2018-08-07T07:46:55.582Z,1005.90
2018-08-07T07:47:55.451Z,1005.76
2018-08-07T07:48:55.447Z,1005.80
2018-08-07T07:49:55.435Z,1005.74
2018-08-07T07:50:55.479Z,1005.71
2018-08-07T07:51:55.424Z,1005.71
2018-08-07T07:52:55.422Z,1005.66
2018-08-07T07:53:55.436Z,1005.64
2018-08-07T07:54:55.407Z,1005.62
2018-08-07T07:55:55.410Z,1005.65
2018-08-07T07:56:55.393Z,1005.64
2018-08-07T07:57:55.390Z,1005.65
2018-08-07T07:58:55.392Z,1005.65
2018-08-07T07:59:55.378Z,1005.69
2018-08-07T08:00:55.381Z,1005.64
2018-08-07T08:01:55.366Z,1005.58
2018-08-07T08:02:55.359Z,1005.61
2018-08-07T08:03:55.361Z,1005.59
2018-08-07T08:04:55.349Z,1005.56
2018-08-07T08:05:55.437Z,1005.51
2018-08-07T08:06:55.342Z,1005.56
2018-08-07T08:07:55.337Z,1005.54
2018-08-07T08:08:55.323Z,1005.56
2018-08-07T08:09:55.318Z,1005.56
2018-08-07T08:10:55.320Z,1005.53
2018-08-07T08:11:55.307Z,1005.50
2018-08-07T08:12:55.307Z,1005.52
2018-08-07T08:13:55.294Z,1005.52
2018-08-07T08:14:55.289Z,1005.50
2018-08-07T08:15:55.281Z,1005.48
2018-08-07T08:16:55.328Z,1005.47
2018-08-07T08:17:55.294Z,1005.46
2018-08-07T08:18:55.273Z,1005.47
2018-08-07T08:19:55.268Z,1005.46
2018-08-07T08:20:55.253Z,1005.52
2018-08-07T08:21:57.869Z,1005.49
2018-08-07T08:22:57.864Z,1005.50
2018-08-07T08:23:55.233Z,1005.49
2018-08-07T08:24:55.228Z,1005.49
2018-08-07T08:26:28.430Z,1005.49
2018-08-07T08:30:15.915Z,1005.49
2018-08-07T08:31:15.913Z,1005.50
2018-08-07T08:32:15.920Z,1005.46
2018-08-07T08:33:15.898Z,1005.46
2018-08-07T08:34:15.888Z,1005.45
2018-08-07T08:35:15.950Z,1005.43
2018-08-07T08:36:15.873Z,1005.45
2018-08-07T08:37:15.865Z,1005.47
2018-08-07T08:38:15.861Z,1005.51
2018-08-07T08:39:15.855Z,1005.49
2018-08-07T08:40:15.847Z,1005.48
2018-08-07T08:41:15.844Z,1005.49
2018-08-07T08:42:15.834Z,1005.49
2018-08-07T08:43:15.889Z,1005.60
2018-08-07T08:44:15.824Z,1005.62
2018-08-07T08:45:15.814Z,1005.51
2018-08-07T08:46:15.813Z,1005.50
2018-08-07T08:47:15.805Z,1005.53
2018-08-07T08:48:15.825Z,1005.46
2018-08-07T08:49:15.789Z,1005.47
2018-08-07T08:50:15.792Z,1005.44
2018-08-07T08:51:15.777Z,1005.44
2018-08-07T08:53:40.378Z,1005.38
2018-08-07T08:54:40.367Z,1005.38
2018-08-07T08:55:40.358Z,1005.37
2018-08-07T08:56:40.352Z,1005.34
2018-08-07T08:57:40.346Z,1005.34
2018-08-07T08:58:40.340Z,1005.29
2018-08-07T08:59:40.333Z,1005.44
2018-08-07T09:00:40.327Z,1005.37
2018-08-07T09:01:40.318Z,1005.46
2018-08-07T09:02:40.312Z,1005.50
2018-08-07T09:03:40.307Z,1005.51
2018-08-07T09:04:40.301Z,1005.46
2018-08-07T09:05:40.301Z,1005.39
2018-08-07T09:06:40.290Z,1005.33
2018-08-07T09:07:40.281Z,1005.30
2018-08-07T09:08:40.275Z,1005.39
2018-08-07T09:09:40.269Z,1005.29
2018-08-07T09:10:40.455Z,1005.37
2018-08-07T09:11:40.256Z,1005.34
2018-08-07T09:12:40.253Z,1005.34
2018-08-07T09:13:40.254Z,1005.56
2018-08-07T09:14:40.253Z,1005.33
2018-08-07T09:15:40.240Z,1005.27
2018-08-07T09:16:40.229Z,1005.45
2018-08-07T09:17:40.228Z,1005.26
2018-08-07T09:18:40.236Z,1005.18
2018-08-07T09:19:40.277Z,1005.18
2018-08-07T09:20:40.212Z,1005.15
2018-08-07T09:21:40.217Z,1005.17
2018-08-07T09:22:40.209Z,1005.13
2018-08-07T09:23:40.224Z,1005.15
2018-08-07T09:24:40.198Z,1005.13
2018-08-07T09:25:40.290Z,1005.07
2018-08-07T09:26:43.214Z,1005.06
2018-08-07T09:27:40.329Z,1005.11
2018-08-07T09:28:40.180Z,1005.37
2018-08-07T09:29:40.175Z,1005.14
2018-08-07T09:30:40.172Z,1005.21
2018-08-07T09:31:40.169Z,1005.37
2018-08-07T09:32:40.165Z,1005.29
2018-08-07T09:33:40.167Z,1005.34
2018-08-07T09:34:40.159Z,1005.18
2018-08-07T09:36:13.370Z,1005.03
2018-08-07T09:36:40.153Z,1004.98
2018-08-07T09:37:40.154Z,1005.03
2018-08-07T09:38:40.153Z,1004.99
2018-08-07T09:39:40.190Z,1005.16
2018-08-07T09:40:40.165Z,1005.03
2018-08-07T09:41:40.153Z,1004.97
2018-08-07T09:42:40.139Z,1005.00
2018-08-07T09:43:40.198Z,1005.21
2018-08-07T09:44:40.137Z,1005.29
2018-08-07T09:45:40.134Z,1005.13
2018-08-07T09:46:40.269Z,1005.31
2018-08-07T09:47:40.140Z,1005.29
2018-08-07T09:48:40.132Z,1005.33
2018-08-07T09:49:40.807Z,1005.30
2018-08-07T09:50:40.147Z,1005.28
2018-08-07T09:51:40.133Z,1005.22
2018-08-07T09:52:40.123Z,1005.21
2018-08-07T09:53:40.128Z,1005.20
2018-08-07T09:54:40.119Z,1005.14
2018-08-07T09:55:40.119Z,1005.14
2018-08-07T09:56:40.269Z,1005.14
2018-08-07T09:57:40.121Z,1005.15
2018-08-07T09:58:40.268Z,1005.04
2018-08-07T09:59:40.122Z,1005.02
2018-08-07T10:00:40.135Z,1005.05
2018-08-07T10:01:40.144Z,1005.01
2018-08-07T10:02:40.132Z,1005.00
2018-08-07T10:03:40.132Z,1004.94
2018-08-07T10:04:40.147Z,1004.95
2018-08-07T10:05:40.142Z,1004.93
2018-08-07T10:06:40.145Z,1004.91
2018-08-07T10:07:40.148Z,1004.88
2018-08-07T10:08:40.152Z,1004.85
2018-08-07T10:09:40.158Z,1004.87
2018-08-07T10:10:40.162Z,1004.85
2018-08-07T10:11:40.170Z,1004.85
2018-08-07T10:12:40.173Z,1004.86
2018-08-07T10:13:40.178Z,1004.82
2018-08-07T10:14:40.186Z,1004.81
2018-08-07T10:15:40.194Z,1004.76
2018-08-07T10:16:40.197Z,1004.72
2018-08-07T10:17:40.216Z,1004.73
2018-08-07T10:18:40.215Z,1004.69
2018-08-07T10:19:40.218Z,1004.64
2018-08-07T10:20:40.227Z,1004.64
2018-08-07T10:21:40.348Z,1004.64
2018-08-07T10:22:40.239Z,1004.66
2018-08-07T10:23:40.261Z,1004.64
2018-08-07T10:24:40.256Z,1004.61
2018-08-07T10:25:40.268Z,1004.62
2018-08-07T10:26:40.268Z,1004.60
2018-08-07T10:27:40.275Z,1004.56
2018-08-07T10:28:40.285Z,1004.58
2018-08-07T10:29:40.294Z,1004.57
2018-08-07T10:30:40.347Z,1004.50
2018-08-07T10:31:40.307Z,1004.47
2018-08-07T10:32:40.316Z,1004.43
2018-08-07T10:33:40.328Z,1004.46
2018-08-07T10:34:40.488Z,1004.43
2018-08-07T10:35:40.342Z,1004.38
2018-08-07T10:36:40.349Z,1004.32
2018-08-07T10:37:40.358Z,1004.30
2018-08-07T10:38:40.368Z,1004.32
2018-08-07T10:39:40.377Z,1004.29
2018-08-07T10:40:40.471Z,1004.22
2018-08-07T10:41:40.405Z,1004.17
2018-08-07T10:42:40.411Z,1004.17
2018-08-07T10:43:40.574Z,1004.14
2018-08-07T10:44:40.436Z,1004.10
2018-08-07T10:45:40.429Z,1004.08
2018-08-07T10:46:40.440Z,1004.07
2018-08-07T10:47:40.491Z,1004.04
2018-08-07T10:48:40.467Z,1004.02
2018-08-07T10:49:40.475Z,1003.99
2018-08-07T10:50:40.530Z,1004.06
2018-08-07T10:51:40.492Z,1004.03
2018-08-07T10:52:40.494Z,1003.97
2018-08-07T10:53:40.503Z,1003.94
2018-08-07T10:54:40.522Z,1003.88
2018-08-07T10:55:40.524Z,1003.86
2018-08-07T10:56:40.582Z,1003.89
2018-08-07T10:57:40.549Z,1003.93
2018-08-07T10:58:40.553Z,1003.85
2018-08-07T10:59:40.562Z,1003.81
2018-08-07T11:00:40.574Z,1003.78
2018-08-07T11:01:40.584Z,1003.80
2018-08-07T11:02:40.622Z,1003.74
2018-08-07T11:03:40.623Z,1003.73
2018-08-07T11:04:40.611Z,1003.68
2018-08-07T11:05:40.670Z,1003.69
2018-08-07T11:06:40.634Z,1003.74
2018-08-07T11:07:40.642Z,1003.70
2018-08-07T11:08:40.648Z,1003.66
2018-08-07T11:09:40.659Z,1003.61
2018-08-07T11:10:40.670Z,1003.59
2018-08-07T11:11:40.680Z,1003.64
2018-08-07T11:12:40.757Z,1003.79
2018-08-07T11:13:40.728Z,1003.76
2018-08-07T11:14:40.717Z,1003.77
2018-08-07T11:15:40.719Z,1003.75
2018-08-07T11:16:40.729Z,1003.81
2018-08-07T11:17:40.741Z,1003.81
2018-08-07T11:18:40.760Z,1003.80
2018-08-07T11:19:40.762Z,1003.83
2018-08-07T11:20:40.763Z,1003.87
2018-08-07T11:21:40.777Z,1003.86
2018-08-07T11:22:40.787Z,1003.93
2018-08-07T11:23:40.790Z,1003.92
2018-08-07T11:24:40.857Z,1003.96
2018-08-07T11:25:40.807Z,1003.91
2018-08-07T11:26:40.818Z,1003.97
2018-08-07T11:27:40.827Z,1004.06
2018-08-07T11:28:40.847Z,1004.04
2018-08-07T11:29:40.847Z,1004.06
2018-08-07T11:30:40.855Z,1004.07
2018-08-07T11:31:40.866Z,1004.09
2018-08-07T11:32:40.875Z,1004.19
2018-08-07T11:33:40.881Z,1004.25
2018-08-07T11:34:40.894Z,1004.27
2018-08-07T11:35:40.910Z,1004.33
2018-08-07T11:36:40.911Z,1004.29
2018-08-07T11:37:40.913Z,1004.38
2018-08-07T11:38:40.928Z,1004.37
2018-08-07T11:39:40.929Z,1004.45
2018-08-07T11:40:40.933Z,1004.46
2018-08-07T11:41:40.941Z,1004.41
2018-08-07T11:42:40.952Z,1004.50
2018-08-07T11:43:40.959Z,1004.47
2018-08-07T11:44:40.972Z,1004.43
2018-08-07T11:45:40.972Z,1004.55
2018-08-07T11:46:40.983Z,1004.56
2018-08-07T11:47:40.998Z,1004.49
2018-08-07T11:48:40.993Z,1004.50
2018-08-07T11:49:41.002Z,1004.54
2018-08-07T11:50:41.063Z,1004.47
2018-08-07T11:51:41.030Z,1004.51
2018-08-07T11:52:41.038Z,1004.36
2018-08-07T11:53:41.031Z,1003.94
2018-08-07T11:54:41.039Z,1003.73
2018-08-07T11:55:41.039Z,1003.73
2018-08-07T11:56:41.045Z,1003.74
2018-08-07T11:57:41.050Z,1003.72
2018-08-07T11:58:41.055Z,1003.68
2018-08-07T11:59:41.061Z,1003.64
2018-08-07T12:00:41.193Z,1003.57
2018-08-07T12:01:41.073Z,1003.56
2018-08-07T12:02:41.079Z,1003.55
2018-08-07T12:03:41.087Z,1003.52
2018-08-07T12:04:41.088Z,1003.53
2018-08-07T12:05:41.096Z,1003.51
2018-08-07T12:06:41.101Z,1003.55
2018-08-07T12:07:41.103Z,1003.57
2018-08-07T12:08:41.108Z,1003.55
2018-08-07T12:09:41.107Z,1003.49
2018-08-07T12:10:41.109Z,1003.52
2018-08-07T12:11:41.112Z,1003.51
2018-08-07T12:12:41.113Z,1003.47
2018-08-07T12:13:41.236Z,1003.48
2018-08-07T12:14:41.118Z,1003.44